createdAt,value
2022-12-03T00:00:12.175Z,39.30
2022-12-03T00:02:41.606Z,15.70
2022-12-03T00:05:09.862Z,17.60
2022-12-03T00:07:37.474Z,22.10
2022-12-03T00:10:08.774Z,28.30
2022-12-03T00:12:37.411Z,33.30
2022-12-03T00:15:06.361Z,34.50
2022-12-03T00:17:33.800Z,37.10
2022-12-03T00:20:01.259Z,26.60
2022-12-03T00:22:28.715Z,27.60
2022-12-03T00:24:56.460Z,19.60
2022-12-03T00:27:24.142Z,15.80
2022-12-03T00:29:51.646Z,11.90
2022-12-03T00:32:19.153Z,20.80
2022-12-03T00:34:46.620Z,31.40
2022-12-03T00:37:14.170Z,27.20
2022-12-03T00:39:41.628Z,27.40
2022-12-03T00:42:09.083Z,20.80
2022-12-03T00:44:36.542Z,14.30
2022-12-03T00:47:04.234Z,24.30
2022-12-03T00:49:31.967Z,21.80
2022-12-03T00:51:59.424Z,23.80
2022-12-03T00:54:31.587Z,12.40
2022-12-03T00:56:59.686Z,21.20
2022-12-03T00:59:27.219Z,27.90
2022-12-03T01:01:54.842Z,17.20
2022-12-03T01:04:22.423Z,24.80
2022-12-03T01:06:49.999Z,31.10
2022-12-03T01:09:17.557Z,26.20
2022-12-03T01:11:47.879Z,28.70
2022-12-03T01:14:16.815Z,45.10
2022-12-03T01:16:44.650Z,22.50
2022-12-03T01:19:16.208Z,21.40
2022-12-03T01:21:44.874Z,15.00
2022-12-03T01:24:12.447Z,28.30
2022-12-03T01:26:39.890Z,23.30
2022-12-03T01:29:07.489Z,30.80
2022-12-03T01:31:53.441Z,29.40
2022-12-03T01:34:21.101Z,35.40
2022-12-03T01:36:48.559Z,27.60
2022-12-03T01:39:16.016Z,28.70
2022-12-03T01:41:43.472Z,30.20
2022-12-03T01:44:20.147Z,15.70
2022-12-03T01:46:47.789Z,19.20
2022-12-03T01:49:20.102Z,18.80
2022-12-03T01:51:48.145Z,22.30
2022-12-03T01:54:18.079Z,27.10
2022-12-03T01:56:45.927Z,19.60
2022-12-03T01:59:20.755Z,13.90
2022-12-03T02:01:48.359Z,17.50
2022-12-03T02:04:16.949Z,27.80
2022-12-03T02:06:45.020Z,19.80
2022-12-03T02:09:12.966Z,23.70
2022-12-03T02:11:42.786Z,17.70
2022-12-03T02:14:12.906Z,20.20
2022-12-03T02:16:40.650Z,21.00
2022-12-03T02:19:24.119Z,18.30
2022-12-03T02:22:14.157Z,19.90
2022-12-03T02:24:53.150Z,18.90
2022-12-03T02:27:20.863Z,18.40
2022-12-03T02:29:48.309Z,12.70
2022-12-03T02:32:15.792Z,18.90
2022-12-03T02:34:46.689Z,21.60
2022-12-03T02:37:17.628Z,19.50
2022-12-03T02:39:48.156Z,17.50
2022-12-03T02:42:35.373Z,23.20
2022-12-03T02:45:07.644Z,17.20
2022-12-03T02:47:56.818Z,29.30
2022-12-03T02:50:32.053Z,24.00
2022-12-03T02:53:00.761Z,17.00
2022-12-03T02:55:34.928Z,15.00
2022-12-03T02:58:04.458Z,13.40
2022-12-03T03:00:32.243Z,11.70
2022-12-03T03:03:00.089Z,17.30
2022-12-03T03:05:27.541Z,19.80
2022-12-03T03:07:55.122Z,16.10
2022-12-03T03:10:23.379Z,10.30
2022-12-03T03:12:51.791Z,12.90
2022-12-03T03:15:20.030Z,14.60
2022-12-03T03:17:47.485Z,18.80
2022-12-03T03:20:15.263Z,20.20
2022-12-03T03:22:43.736Z,17.60
2022-12-03T03:25:13.242Z,16.00
2022-12-03T03:27:41.614Z,12.80
2022-12-03T03:30:10.311Z,14.00
2022-12-03T03:32:37.863Z,17.20
2022-12-03T03:35:06.030Z,20.50
2022-12-03T03:37:33.590Z,15.40
2022-12-03T03:40:01.046Z,12.60
2022-12-03T03:42:30.643Z,15.80
2022-12-03T03:44:58.420Z,26.50
2022-12-03T03:47:26.182Z,20.90
2022-12-03T03:49:53.643Z,20.40
2022-12-03T03:52:22.556Z,18.30
2022-12-03T03:54:50.064Z,24.80
2022-12-03T03:57:17.644Z,21.10
2022-12-03T03:59:45.207Z,20.10
2022-12-03T04:02:31.196Z,18.00
2022-12-03T04:04:58.653Z,7.10
2022-12-03T04:07:26.158Z,14.30
2022-12-03T04:09:53.768Z,12.60
2022-12-03T04:12:40.175Z,13.70
2022-12-03T04:15:08.706Z,17.70
2022-12-03T04:17:36.210Z,22.20
2022-12-03T04:20:04.183Z,15.20
2022-12-03T04:22:40.549Z,17.00
2022-12-03T04:25:28.070Z,16.70
2022-12-03T04:28:14.379Z,14.70
2022-12-03T04:30:42.892Z,10.50
2022-12-03T04:33:29.153Z,19.60
2022-12-03T04:35:56.623Z,13.60
2022-12-03T04:38:24.099Z,20.50
2022-12-03T04:41:06.682Z,20.70
2022-12-03T04:43:34.951Z,14.60
2022-12-03T04:46:02.643Z,17.00
2022-12-03T04:48:30.522Z,15.60
2022-12-03T04:50:58.346Z,15.90
2022-12-03T04:53:25.908Z,13.80
2022-12-03T04:55:53.465Z,15.30
2022-12-03T04:58:21.225Z,16.50
2022-12-03T05:00:48.709Z,9.60
2022-12-03T05:03:16.248Z,13.10
2022-12-03T05:05:43.706Z,13.30
2022-12-03T05:08:11.334Z,17.50
2022-12-03T05:10:38.917Z,14.90
2022-12-03T05:13:06.299Z,15.20
2022-12-03T05:15:33.727Z,13.80
2022-12-03T05:18:01.188Z,12.90
2022-12-03T05:20:49.632Z,16.00
2022-12-03T05:23:20.467Z,13.90
2022-12-03T05:25:47.923Z,10.20
2022-12-03T05:28:15.387Z,18.60
2022-12-03T05:30:42.921Z,13.40
2022-12-03T05:33:10.500Z,10.90
2022-12-03T05:35:38.059Z,16.80
2022-12-03T05:38:05.516Z,13.80
2022-12-03T05:40:33.077Z,18.00
2022-12-03T05:43:03.396Z,17.60
2022-12-03T05:45:35.981Z,15.60
2022-12-03T05:48:06.099Z,14.90
2022-12-03T05:50:34.885Z,16.80
2022-12-03T05:53:14.935Z,19.20
2022-12-03T05:55:42.501Z,15.60
2022-12-03T05:58:10.366Z,34.70
2022-12-03T06:00:42.637Z,30.40
2022-12-03T06:03:10.840Z,24.80
2022-12-03T06:05:38.571Z,21.30
2022-12-03T06:08:06.113Z,15.50
2022-12-03T06:10:33.684Z,28.40
2022-12-03T06:13:01.344Z,23.00
2022-12-03T06:15:28.839Z,26.30
2022-12-03T06:17:56.364Z,22.20
2022-12-03T06:20:23.821Z,17.70
2022-12-03T06:22:51.271Z,22.60
2022-12-03T06:25:18.832Z,24.60
2022-12-03T06:27:47.005Z,20.40
2022-12-03T06:30:15.281Z,20.50
2022-12-03T06:32:42.758Z,10.60
2022-12-03T06:35:10.300Z,7.30
2022-12-03T06:37:38.234Z,15.00
2022-12-03T06:40:06.814Z,18.10
2022-12-03T06:42:34.309Z,15.10
2022-12-03T06:45:01.787Z,11.50
2022-12-03T06:47:30.967Z,14.70
2022-12-03T06:49:58.459Z,11.00
2022-12-03T06:52:27.089Z,7.50
2022-12-03T06:54:55.144Z,15.40
2022-12-03T06:57:22.949Z,16.90
2022-12-03T06:59:50.744Z,14.00
2022-12-03T07:02:18.490Z,13.20
2022-12-03T07:04:47.064Z,17.70
2022-12-03T07:07:14.815Z,15.40
2022-12-03T07:09:42.309Z,21.40
2022-12-03T07:12:09.831Z,19.60
2022-12-03T07:14:37.289Z,10.80
2022-12-03T07:17:04.848Z,11.60
2022-12-03T07:19:33.047Z,16.30
2022-12-03T07:22:01.230Z,12.80
2022-12-03T07:24:28.747Z,10.30
2022-12-03T07:26:56.307Z,14.30
2022-12-03T07:29:24.895Z,18.90
2022-12-03T07:31:52.450Z,19.90
2022-12-03T07:34:20.050Z,15.40
2022-12-03T07:36:47.571Z,11.90
2022-12-03T07:39:17.480Z,10.10
2022-12-03T07:41:44.938Z,8.80
2022-12-03T07:44:14.771Z,15.30
2022-12-03T07:46:43.196Z,10.40
2022-12-03T07:49:12.554Z,10.40
2022-12-03T07:51:40.192Z,8.50
2022-12-03T07:54:08.065Z,15.70
2022-12-03T07:56:35.620Z,13.70
2022-12-03T07:59:03.175Z,7.20
2022-12-03T08:01:30.692Z,12.50
2022-12-03T08:03:58.297Z,11.70
2022-12-03T08:06:26.469Z,10.60
2022-12-03T08:08:54.025Z,13.30
2022-12-03T08:11:21.587Z,8.50
2022-12-03T08:13:49.246Z,11.30
2022-12-03T08:16:20.596Z,12.20
2022-12-03T08:18:48.766Z,8.50
2022-12-03T08:21:20.320Z,13.30
2022-12-03T08:23:47.986Z,17.50
2022-12-03T08:26:26.293Z,6.60
2022-12-03T08:28:53.961Z,14.70
2022-12-03T08:31:29.372Z,12.20
2022-12-03T08:34:34.844Z,10.50
2022-12-03T08:37:09.027Z,10.80
2022-12-03T08:39:39.081Z,12.70
2022-12-03T08:42:35.526Z,9.20
2022-12-03T08:45:32.441Z,10.20
2022-12-03T08:48:01.152Z,9.70
2022-12-03T08:50:29.969Z,11.90
2022-12-03T08:53:22.688Z,6.80
2022-12-03T08:56:26.387Z,12.30
2022-12-03T08:59:18.429Z,8.70
2022-12-03T09:01:46.560Z,12.60
2022-12-03T09:04:31.011Z,12.30
2022-12-03T09:06:58.915Z,14.00
2022-12-03T09:09:26.582Z,10.70
2022-12-03T09:11:54.388Z,11.90
2022-12-03T09:14:23.068Z,7.00
2022-12-03T09:16:52.477Z,10.00
2022-12-03T09:19:20.182Z,6.10
2022-12-03T09:21:47.757Z,8.80
2022-12-03T09:24:15.213Z,11.70
2022-12-03T09:26:42.664Z,10.10
2022-12-03T09:29:12.441Z,9.80
2022-12-03T09:31:40.918Z,7.30
2022-12-03T09:34:08.620Z,6.70
2022-12-03T09:36:37.175Z,9.90
2022-12-03T09:39:04.868Z,10.50
2022-12-03T09:41:32.322Z,13.60
2022-12-03T09:44:04.507Z,10.00
2022-12-03T09:46:34.440Z,9.50
2022-12-03T09:49:02.780Z,10.40
2022-12-03T09:51:33.141Z,9.20
2022-12-03T09:54:02.408Z,11.80
2022-12-03T09:56:29.968Z,9.90
2022-12-03T09:58:57.630Z,6.50
2022-12-03T10:01:27.982Z,8.50
2022-12-03T10:03:58.816Z,9.80
2022-12-03T10:06:29.316Z,10.00
2022-12-03T10:08:57.689Z,9.10
2022-12-03T10:11:25.971Z,10.90
2022-12-03T10:13:53.860Z,12.30
2022-12-03T10:16:21.499Z,7.20
2022-12-03T10:18:51.718Z,13.00
2022-12-03T10:21:51.841Z,12.40
2022-12-03T10:24:24.589Z,11.20
2022-12-03T10:26:53.631Z,9.90
2022-12-03T10:29:25.811Z,14.20
2022-12-03T10:31:59.370Z,10.80
2022-12-03T10:34:31.655Z,10.20
2022-12-03T10:37:18.741Z,6.90
2022-12-03T10:39:56.021Z,6.50
2022-12-03T10:42:25.216Z,7.80
2022-12-03T10:45:25.273Z,10.50
2022-12-03T10:48:04.344Z,12.60
2022-12-03T10:50:32.167Z,24.50
2022-12-03T10:52:59.721Z,59.40
2022-12-03T10:55:28.925Z,41.40
2022-12-03T10:58:00.878Z,30.10
2022-12-03T11:00:28.339Z,18.90
2022-12-03T11:02:57.132Z,27.10
2022-12-03T11:05:31.341Z,30.40
2022-12-03T11:08:01.217Z,28.90
2022-12-03T11:10:28.816Z,31.00
2022-12-03T11:13:28.220Z,30.50
2022-12-03T11:15:57.878Z,40.50
2022-12-03T11:18:38.086Z,31.10
2022-12-03T11:21:13.226Z,28.40
2022-12-03T11:23:46.886Z,18.20
2022-12-03T11:26:37.631Z,13.10
2022-12-03T11:29:06.011Z,10.50
2022-12-03T11:31:47.719Z,16.50
2022-12-03T11:34:21.540Z,57.20
2022-12-03T11:37:11.588Z,27.20
2022-12-03T11:39:45.495Z,29.20
2022-12-03T11:42:38.556Z,26.40
2022-12-03T11:45:06.026Z,33.70
2022-12-03T11:47:43.813Z,27.30
2022-12-03T11:50:21.539Z,60.50
2022-12-03T11:52:53.473Z,50.40
2022-12-03T11:55:30.689Z,87.80
2022-12-03T11:58:02.816Z,45.60
2022-12-03T12:00:30.379Z,16.10
2022-12-03T12:02:58.684Z,39.40
2022-12-03T12:05:30.517Z,36.40
2022-12-03T12:07:58.176Z,40.20
2022-12-03T12:10:42.326Z,38.10
2022-12-03T12:13:35.587Z,50.80
2022-12-03T12:16:05.465Z,30.80
2022-12-03T12:18:42.394Z,16.50
2022-12-03T12:21:44.759Z,9.30
2022-12-03T12:24:51.942Z,16.00
2022-12-03T12:27:47.508Z,25.20
2022-12-03T12:30:16.747Z,56.50
2022-12-03T12:32:51.956Z,55.10
2022-12-03T12:35:21.276Z,89.40
2022-12-03T12:37:58.230Z,56.80
2022-12-03T12:40:29.678Z,60.10
2022-12-03T12:42:59.124Z,49.90
2022-12-03T12:45:28.264Z,50.10
2022-12-03T12:48:02.029Z,57.30
2022-12-03T12:50:32.232Z,73.80
2022-12-03T12:53:02.560Z,84.40
2022-12-03T12:55:29.571Z,67.70
2022-12-03T12:57:59.004Z,95.30
2022-12-03T13:00:25.976Z,100.80
2022-12-03T13:03:00.973Z,68.50
2022-12-03T13:05:45.295Z,34.70
2022-12-03T13:08:24.817Z,24.40
2022-12-03T13:10:53.781Z,23.80
2022-12-03T13:13:29.310Z,19.60
2022-12-03T13:15:56.214Z,27.20
2022-12-03T13:18:33.317Z,26.90
2022-12-03T13:21:07.002Z,17.80
2022-12-03T13:23:34.951Z,24.50
2022-12-03T13:26:22.319Z,21.80
2022-12-03T13:28:52.345Z,12.00
2022-12-03T13:31:23.713Z,55.40
2022-12-03T13:33:51.209Z,29.70
2022-12-03T13:36:19.836Z,14.20
2022-12-03T13:38:46.798Z,18.00
2022-12-03T13:41:36.192Z,14.80
2022-12-03T13:44:11.171Z,10.80
2022-12-03T13:46:38.031Z,14.50
2022-12-03T13:49:22.798Z,79.10
2022-12-03T13:54:22.288Z,14.80
2022-12-03T13:56:50.177Z,15.20
2022-12-03T13:59:20.363Z,22.40
2022-12-03T14:01:50.298Z,21.00
2022-12-03T14:04:17.474Z,23.60
2022-12-03T14:06:44.411Z,23.60
2022-12-03T14:09:11.559Z,21.30
2022-12-03T14:11:57.245Z,16.10
2022-12-03T14:14:24.205Z,25.80
2022-12-03T14:16:59.567Z,23.20
2022-12-03T14:19:27.194Z,19.90
2022-12-03T14:21:54.133Z,36.80
2022-12-03T14:24:21.140Z,32.50
2022-12-03T14:26:48.124Z,27.90
2022-12-03T14:29:14.975Z,16.20
2022-12-03T14:31:41.994Z,18.90
2022-12-03T14:34:09.153Z,17.40
2022-12-03T14:36:36.107Z,20.40
2022-12-03T14:39:03.052Z,23.90
2022-12-03T14:41:48.635Z,16.70
2022-12-03T14:44:15.500Z,21.00
2022-12-03T14:46:42.541Z,12.90
2022-12-03T14:49:09.573Z,7.40
2022-12-03T14:51:36.549Z,9.60
2022-12-03T14:54:03.615Z,10.40
2022-12-03T14:56:30.610Z,10.60
2022-12-03T14:58:57.481Z,12.10
2022-12-03T15:01:24.431Z,9.70
2022-12-03T15:03:51.645Z,5.40
2022-12-03T15:06:18.696Z,11.00
2022-12-03T15:08:46.214Z,7.70
2022-12-03T15:11:13.120Z,8.60
2022-12-03T15:13:40.040Z,5.10
2022-12-03T15:16:07.705Z,6.80
2022-12-03T15:18:35.157Z,7.00
2022-12-03T15:21:01.999Z,9.20
2022-12-03T15:23:28.946Z,5.70
2022-12-03T15:25:55.782Z,11.80
2022-12-03T15:28:23.283Z,5.20
2022-12-03T15:30:50.983Z,6.70
2022-12-03T15:33:18.084Z,9.50
2022-12-03T15:35:45.043Z,8.10
2022-12-03T15:38:12.202Z,8.30
2022-12-03T15:40:39.511Z,11.10
2022-12-03T15:43:07.357Z,7.90
2022-12-03T15:45:34.626Z,8.80
2022-12-03T15:48:01.796Z,8.30
2022-12-03T15:50:28.927Z,8.50
2022-12-03T15:52:56.071Z,5.40
2022-12-03T15:55:23.017Z,6.20
2022-12-03T15:57:50.108Z,11.50
2022-12-03T16:00:18.027Z,10.50
2022-12-03T16:02:50.765Z,9.00
2022-12-03T16:05:19.440Z,6.90
2022-12-03T16:07:46.427Z,6.10
2022-12-03T16:10:13.896Z,7.00
2022-12-03T16:12:40.840Z,10.60
2022-12-03T16:15:08.409Z,6.10
2022-12-03T16:17:35.289Z,9.50
2022-12-03T16:20:02.356Z,6.80
2022-12-03T16:22:29.539Z,10.90
2022-12-03T16:24:56.409Z,5.30
2022-12-03T16:27:25.803Z,8.30
2022-12-03T16:29:53.523Z,10.40
2022-12-03T16:32:20.617Z,9.40
2022-12-03T16:34:47.540Z,9.70
2022-12-03T16:37:14.483Z,10.70
2022-12-03T16:39:47.506Z,6.80
2022-12-03T16:42:17.500Z,10.60
2022-12-03T16:45:03.126Z,12.00
2022-12-03T16:47:33.835Z,27.70
2022-12-03T16:50:05.840Z,11.30
2022-12-03T16:52:32.791Z,9.40
2022-12-03T16:54:59.964Z,12.10
2022-12-03T16:57:33.136Z,10.80
2022-12-03T17:00:01.149Z,6.00
2022-12-03T17:02:28.175Z,8.20
2022-12-03T17:04:55.222Z,14.10
2022-12-03T17:07:22.367Z,8.00
2022-12-03T17:09:49.617Z,10.00
2022-12-03T17:12:16.524Z,15.80
2022-12-03T17:14:43.921Z,11.80
2022-12-03T17:17:10.867Z,14.10
2022-12-03T17:19:39.956Z,13.10
2022-12-03T17:22:07.010Z,15.50
2022-12-03T17:24:34.096Z,22.00
2022-12-03T17:27:00.998Z,15.20
2022-12-03T17:29:27.944Z,15.10
2022-12-03T17:31:55.029Z,11.80
2022-12-03T17:34:22.133Z,14.20
2022-12-03T17:36:49.037Z,12.00
2022-12-03T17:39:16.028Z,9.10
2022-12-03T17:41:42.965Z,10.30
2022-12-03T17:44:12.056Z,12.20
2022-12-03T17:46:41.010Z,7.40
2022-12-03T17:49:08.142Z,9.20
2022-12-03T17:51:35.079Z,21.80
2022-12-03T17:54:02.403Z,13.90
2022-12-03T17:56:29.368Z,18.60
2022-12-03T17:58:57.417Z,14.20
2022-12-03T18:01:24.397Z,13.90
2022-12-03T18:03:51.655Z,19.40
2022-12-03T18:06:18.637Z,19.90
2022-12-03T18:08:45.616Z,25.10
2022-12-03T18:11:12.562Z,14.60
2022-12-03T18:13:39.527Z,10.70
2022-12-03T18:16:06.807Z,15.50
2022-12-03T18:18:33.757Z,12.60
2022-12-03T18:21:04.465Z,10.60
2022-12-03T18:23:31.469Z,19.80
2022-12-03T18:25:58.296Z,10.20
2022-12-03T18:28:25.263Z,15.40
2022-12-03T18:30:52.877Z,27.30
2022-12-03T18:33:21.615Z,12.60
2022-12-03T18:35:48.753Z,14.20
2022-12-03T18:40:12.374Z,21.90
2022-12-03T18:42:39.665Z,16.60
2022-12-03T18:45:07.367Z,20.40
2022-12-03T18:47:34.321Z,17.80
2022-12-03T18:50:01.309Z,17.50
2022-12-03T18:52:28.385Z,11.00
2022-12-03T18:54:56.532Z,22.90
2022-12-03T18:57:23.611Z,14.70
2022-12-03T18:59:50.655Z,16.50
2022-12-03T19:03:00.533Z,18.40
2022-12-03T19:05:07.739Z,19.80
2022-12-03T19:07:34.790Z,15.90
2022-12-03T19:10:02.092Z,20.30
2022-12-03T19:12:29.086Z,22.80
2022-12-03T19:14:55.980Z,18.60
2022-12-03T19:17:23.130Z,20.70
2022-12-03T19:19:50.004Z,19.80
2022-12-03T19:22:16.906Z,15.10
2022-12-03T19:24:44.007Z,10.00
2022-12-03T19:27:11.010Z,22.70
2022-12-03T19:29:37.964Z,14.60
2022-12-03T19:32:05.270Z,24.30
2022-12-03T19:34:32.455Z,21.00
2022-12-03T19:36:59.336Z,15.60
2022-12-03T19:39:26.340Z,29.10
2022-12-03T19:41:53.319Z,22.90
2022-12-03T19:44:20.441Z,15.60
2022-12-03T19:46:49.234Z,13.10
2022-12-03T19:49:18.776Z,19.60
2022-12-03T19:51:45.684Z,37.70
2022-12-03T19:54:12.928Z,23.20
2022-12-03T19:56:40.096Z,17.50
2022-12-03T19:59:07.868Z,14.70
2022-12-03T20:01:35.701Z,13.70
2022-12-03T20:04:03.147Z,13.40
2022-12-03T20:06:31.981Z,11.60
2022-12-03T20:09:00.154Z,15.10
2022-12-03T20:11:28.855Z,18.30
2022-12-03T20:14:01.116Z,22.10
2022-12-03T20:16:28.456Z,15.60
2022-12-03T20:19:00.232Z,20.30
2022-12-03T20:21:28.625Z,18.50
2022-12-03T20:23:55.558Z,18.50
2022-12-03T20:26:22.508Z,18.70
2022-12-03T20:28:49.503Z,25.20
2022-12-03T20:31:18.059Z,12.70
2022-12-03T20:33:46.873Z,12.10
2022-12-03T20:36:14.711Z,18.20
2022-12-03T20:38:41.838Z,24.50
2022-12-03T20:41:11.013Z,20.00
2022-12-03T20:43:37.980Z,14.50
2022-12-03T20:46:16.009Z,14.10
2022-12-03T20:48:43.296Z,15.50
2022-12-03T20:51:11.811Z,21.30
2022-12-03T20:53:38.776Z,15.50
2022-12-03T20:56:05.952Z,9.40
2022-12-03T20:58:32.795Z,17.90
2022-12-03T21:01:16.037Z,12.10
2022-12-03T21:03:43.970Z,17.70
2022-12-03T21:06:11.468Z,10.20
2022-12-03T21:08:42.664Z,13.80
2022-12-03T21:11:14.896Z,18.30
2022-12-03T21:13:43.931Z,11.40
2022-12-03T21:16:13.109Z,9.10
2022-12-03T21:18:40.179Z,10.60
2022-12-03T21:21:07.228Z,11.10
2022-12-03T21:23:34.903Z,9.20
2022-12-03T21:26:06.177Z,18.30
2022-12-03T21:28:33.417Z,9.00
2022-12-03T21:31:05.911Z,6.70
2022-12-03T21:33:32.932Z,9.20
2022-12-03T21:36:00.274Z,11.30
2022-12-03T21:38:27.901Z,8.50
2022-12-03T21:40:55.057Z,13.70
2022-12-03T21:43:22.304Z,7.00
2022-12-03T21:45:49.492Z,8.00
2022-12-03T21:48:16.576Z,10.40
2022-12-03T21:50:43.588Z,8.90
2022-12-03T21:53:10.742Z,13.50
2022-12-03T21:55:41.050Z,11.00
2022-12-03T21:58:08.423Z,11.60
2022-12-03T22:00:35.620Z,12.20
2022-12-03T22:03:02.522Z,13.00
2022-12-03T22:05:29.539Z,8.20
2022-12-03T22:07:56.454Z,12.70
2022-12-03T22:10:23.494Z,7.90
2022-12-03T22:12:50.430Z,9.60
2022-12-03T22:15:19.409Z,8.90
2022-12-03T22:17:47.017Z,11.00
2022-12-03T22:20:14.040Z,7.00
2022-12-03T22:22:41.076Z,7.90
2022-12-03T22:25:08.186Z,11.20
2022-12-03T22:27:35.038Z,6.80
2022-12-03T22:30:02.515Z,7.70
2022-12-03T22:32:29.354Z,6.90
2022-12-03T22:34:56.243Z,6.30
2022-12-03T22:37:23.086Z,7.50
2022-12-03T22:39:49.943Z,12.30
2022-12-03T22:42:16.829Z,7.40
2022-12-03T22:44:43.706Z,7.20
2022-12-03T22:47:10.541Z,12.00
2022-12-03T22:49:37.379Z,9.40
2022-12-03T22:52:04.430Z,7.80
2022-12-03T22:54:31.340Z,8.60
2022-12-03T22:56:58.228Z,9.50
2022-12-03T22:59:25.061Z,14.40
2022-12-03T23:01:51.941Z,10.10
2022-12-03T23:04:18.850Z,9.50
2022-12-03T23:06:45.826Z,8.80
2022-12-03T23:09:12.643Z,7.90
2022-12-03T23:11:39.577Z,8.10
2022-12-03T23:14:06.475Z,10.10
2022-12-03T23:16:33.996Z,5.20
2022-12-03T23:19:01.242Z,6.70
2022-12-03T23:21:30.758Z,6.50
2022-12-03T23:23:59.110Z,7.20
2022-12-03T23:26:26.332Z,8.10
2022-12-03T23:28:53.205Z,7.50
2022-12-03T23:31:24.446Z,4.10
2022-12-03T23:33:52.374Z,5.90
2022-12-03T23:36:19.392Z,5.40
2022-12-03T23:38:46.403Z,4.00
2022-12-03T23:41:18.370Z,6.70
2022-12-03T23:43:45.358Z,5.70
2022-12-03T23:46:14.813Z,7.80
2022-12-03T23:48:42.064Z,4.60
2022-12-03T23:51:10.673Z,8.50
2022-12-03T23:53:37.627Z,6.00
2022-12-03T23:56:12.673Z,6.20
2022-12-03T23:58:39.606Z,7.00
